Decoded Metar for KVDF (TAMPA/VANDENBURG in FL, USA) (IATA:VDF) | Meteo·Mobile Aviation Weather
aviador You're here:

KVDF Decoded Metar

TAMPA/VANDENBURG in FL, USA
Report Time2018-08-22 04:15:00
UTC Time2018-08-22 04:29:04
Flight Rules vfr VFR
WindCalm
Visibility9999 m
Phenomena:N/A
Clouds:N/A
Expected CloudBase > 400 ft AGL from Temp-Dew spread
CeilingNone
Temp25°C (ISA +10)
Dew Point24°C (94% RH)
QNH1020 hPa
Density Alt1,342 ft
Elevation23 ft
Report Wrong Elevation
Raw Report
METAR KVDF 220415Z AUTO 00000KT 10SM CLR 25/24 A3011 RMK AO2=

Extra information for KVDF:More info

Metar Taf Metar & Taf Last 4 Metars F.Rules Stats Wind Profile Meteogram Temp Stats Airport Information Weather charts Add Link Nearby VenuesMetar ALERT Operation Metar Decoded Social comments

AIRNAV info for KVDF